createdAt,value
2017-11-15T00:01:21.120Z,160.23
2017-11-15T00:03:48.649Z,159.20
2017-11-15T00:06:16.086Z,134.27
2017-11-15T00:08:43.516Z,173.87
2017-11-15T00:11:10.976Z,261.43
2017-11-15T00:13:38.405Z,135.37
2017-11-15T00:16:05.825Z,116.77
2017-11-15T00:18:33.677Z,203.63
2017-11-15T00:21:01.102Z,107.47
2017-11-15T00:23:28.538Z,83.60
2017-11-15T00:25:55.977Z,88.30
2017-11-15T00:28:23.405Z,88.47
2017-11-15T00:30:50.838Z,80.73
2017-11-15T00:33:18.289Z,87.00
2017-11-15T00:35:45.737Z,76.47
2017-11-15T00:38:13.158Z,79.40
2017-11-15T00:40:40.592Z,97.03
2017-11-15T00:43:08.428Z,86.17
2017-11-15T00:45:35.857Z,89.03
2017-11-15T00:48:03.287Z,90.87
2017-11-15T00:50:30.757Z,119.20
2017-11-15T00:52:58.187Z,93.03
2017-11-15T00:55:25.618Z,132.83
2017-11-15T00:57:53.453Z,96.87
2017-11-15T01:00:20.896Z,119.00
2017-11-15T01:02:48.785Z,105.13
2017-11-15T01:05:16.273Z,94.60
2017-11-15T01:07:43.685Z,98.43
2017-11-15T01:10:11.124Z,115.77
2017-11-15T01:12:38.576Z,115.20
2017-11-15T01:15:05.989Z,131.17
2017-11-15T01:17:33.818Z,98.70
2017-11-15T01:20:01.515Z,95.23
2017-11-15T01:22:29.338Z,130.57
2017-11-15T01:24:56.770Z,110.50
2017-11-15T01:27:24.297Z,126.10
2017-11-15T01:29:51.725Z,127.47
2017-11-15T01:32:19.168Z,95.70
2017-11-15T01:34:46.614Z,99.50
2017-11-15T01:37:14.054Z,89.50
2017-11-15T01:39:41.481Z,103.40
2017-11-15T01:42:08.906Z,92.33
2017-11-15T01:44:36.853Z,108.90
2017-11-15T01:47:04.296Z,116.20
2017-11-15T01:49:31.727Z,119.13
2017-11-15T01:51:59.159Z,116.10
2017-11-15T01:54:26.708Z,115.23
2017-11-15T01:56:54.604Z,120.17
2017-11-15T01:59:22.046Z,140.40
2017-11-15T02:01:49.596Z,106.27
2017-11-15T02:04:17.024Z,136.40
2017-11-15T02:06:44.854Z,105.00
2017-11-15T02:09:12.307Z,116.63
2017-11-15T02:11:39.756Z,109.90
2017-11-15T02:14:07.169Z,104.90
2017-11-15T02:16:35.285Z,89.83
2017-11-15T02:19:02.720Z,114.00
2017-11-15T02:21:30.308Z,114.87
2017-11-15T02:23:57.748Z,116.37
2017-11-15T02:26:25.182Z,107.90
2017-11-15T02:28:52.710Z,146.33
2017-11-15T02:31:20.538Z,167.07
2017-11-15T02:33:47.962Z,173.03
2017-11-15T02:36:16.254Z,137.30
2017-11-15T02:38:43.685Z,320.87
2017-11-15T02:41:11.119Z,310.33
2017-11-15T02:43:39.229Z,273.83
2017-11-15T02:46:06.733Z,287.77
2017-11-15T02:48:34.561Z,361.80
2017-11-15T02:51:02.011Z,266.47
2017-11-15T02:53:29.443Z,235.10
2017-11-15T02:55:56.873Z,216.57
2017-11-15T02:58:24.729Z,242.80
2017-11-15T03:00:52.561Z,234.97
2017-11-15T03:03:19.998Z,228.20
2017-11-15T03:05:47.761Z,285.67
2017-11-15T03:08:15.196Z,406.40
2017-11-15T03:10:42.621Z,353.57
2017-11-15T03:13:10.641Z,423.33
2017-11-15T03:15:38.133Z,275.67
2017-11-15T03:18:05.566Z,188.10
2017-11-15T03:20:33.323Z,244.73
2017-11-15T03:23:00.751Z,272.80
2017-11-15T03:25:28.469Z,342.10
2017-11-15T03:27:56.584Z,279.40
2017-11-15T03:30:24.013Z,264.53
2017-11-15T03:32:51.827Z,171.50
2017-11-15T03:35:19.364Z,245.43
2017-11-15T03:37:46.792Z,309.93
2017-11-15T03:40:14.213Z,203.60
2017-11-15T03:42:41.657Z,102.97
2017-11-15T03:45:09.093Z,144.73
2017-11-15T03:47:36.548Z,160.60
2017-11-15T03:50:03.991Z,123.17
2017-11-15T03:52:31.429Z,108.10
2017-11-15T03:54:58.847Z,106.87
2017-11-15T03:57:26.478Z,85.93
2017-11-15T03:59:53.904Z,92.03
2017-11-15T04:02:21.334Z,86.53
2017-11-15T04:04:49.657Z,85.30
2017-11-15T04:07:17.102Z,78.30
2017-11-15T04:09:44.506Z,72.37
2017-11-15T04:12:12.343Z,72.57
2017-11-15T04:14:39.783Z,65.83
2017-11-15T04:17:07.211Z,62.67
2017-11-15T04:19:34.902Z,57.70
2017-11-15T04:22:02.325Z,54.20
2017-11-15T04:24:29.746Z,59.20
2017-11-15T04:26:57.168Z,60.17
2017-11-15T04:29:24.611Z,86.97
2017-11-15T04:31:52.060Z,65.00
2017-11-15T04:34:19.474Z,70.10
2017-11-15T04:36:47.297Z,66.17
2017-11-15T04:39:14.906Z,72.00
2017-11-15T04:41:42.333Z,77.90
2017-11-15T04:44:09.753Z,79.87
2017-11-15T04:46:37.209Z,89.63
2017-11-15T04:49:04.626Z,88.20
2017-11-15T04:51:32.056Z,83.53
2017-11-15T04:53:59.500Z,122.03
2017-11-15T04:56:26.937Z,121.43
2017-11-15T04:58:54.380Z,107.37
2017-11-15T05:01:22.146Z,111.63
2017-11-15T05:03:49.576Z,100.07
2017-11-15T05:06:17.001Z,92.60
2017-11-15T05:08:44.854Z,86.97
2017-11-15T05:11:12.287Z,81.37
2017-11-15T05:13:39.713Z,74.00
2017-11-15T05:16:07.172Z,75.63
2017-11-15T05:18:34.600Z,83.73
2017-11-15T05:21:02.025Z,71.00
2017-11-15T05:23:29.749Z,74.97
2017-11-15T05:25:57.176Z,74.80
2017-11-15T05:28:24.606Z,67.43
2017-11-15T05:30:52.444Z,61.73
2017-11-15T05:33:19.875Z,60.00
2017-11-15T05:35:47.336Z,70.63
2017-11-15T05:38:14.990Z,65.80
2017-11-15T05:40:42.423Z,68.57
2017-11-15T05:43:09.850Z,78.67
2017-11-15T05:45:38.739Z,62.70
2017-11-15T05:48:06.156Z,67.77
2017-11-15T05:50:33.709Z,79.17
2017-11-15T05:53:02.781Z,69.33
2017-11-15T05:55:30.202Z,64.30
2017-11-15T05:57:58.030Z,64.77
2017-11-15T06:00:25.464Z,69.13
2017-11-15T06:02:52.898Z,70.23
2017-11-15T06:05:20.329Z,57.63
2017-11-15T06:07:48.550Z,73.93
2017-11-15T06:10:15.983Z,72.03
2017-11-15T06:12:43.472Z,86.30
2017-11-15T06:15:10.950Z,78.83
2017-11-15T06:17:38.468Z,76.20
2017-11-15T06:20:05.908Z,87.77
2017-11-15T06:22:33.814Z,81.90
2017-11-15T06:25:01.619Z,82.93
2017-11-15T06:27:29.057Z,78.90
2017-11-15T06:29:56.883Z,81.33
2017-11-15T06:32:24.329Z,88.40
2017-11-15T06:34:51.674Z,82.27
2017-11-15T06:37:19.197Z,93.53
2017-11-15T06:39:46.918Z,84.27
2017-11-15T06:42:15.272Z,92.30
2017-11-15T06:44:42.704Z,103.83
2017-11-15T06:47:10.131Z,98.80
2017-11-15T06:49:37.808Z,90.77
2017-11-15T06:52:05.629Z,105.87
2017-11-15T06:54:33.057Z,106.30
2017-11-15T06:57:00.511Z,109.07
2017-11-15T06:59:27.933Z,91.37
2017-11-15T07:01:55.756Z,103.27
2017-11-15T07:04:23.401Z,112.33
2017-11-15T07:06:53.270Z,102.40
2017-11-15T07:09:21.085Z,111.17
2017-11-15T07:11:48.518Z,109.90
2017-11-15T07:14:15.947Z,88.93
2017-11-15T07:16:43.696Z,91.50
2017-11-15T07:19:11.565Z,84.60
2017-11-15T07:21:39.382Z,84.77
2017-11-15T07:24:06.829Z,88.27
2017-11-15T07:26:34.263Z,88.07
2017-11-15T07:29:01.674Z,87.13
2017-11-15T07:31:29.400Z,86.50
2017-11-15T07:33:56.833Z,84.67
2017-11-15T07:36:24.250Z,85.43
2017-11-15T07:38:52.089Z,77.70
2017-11-15T07:41:19.526Z,70.17
2017-11-15T07:43:46.953Z,58.40
2017-11-15T07:46:14.406Z,56.53
2017-11-15T07:48:41.832Z,61.00
2017-11-15T07:51:09.257Z,56.20
2017-11-15T07:53:36.690Z,48.43
2017-11-15T07:56:04.116Z,52.20
2017-11-15T07:58:31.566Z,56.63
2017-11-15T08:00:59.392Z,44.13
2017-11-15T08:03:26.817Z,45.63
2017-11-15T08:05:54.589Z,44.33
2017-11-15T08:08:22.015Z,43.17
2017-11-15T08:10:49.446Z,39.40
2017-11-15T08:13:16.881Z,37.83
2017-11-15T08:15:44.307Z,45.57
2017-11-15T08:18:11.737Z,50.60
2017-11-15T08:20:39.192Z,45.87
2017-11-15T08:23:06.617Z,46.10
2017-11-15T08:25:34.440Z,48.60
2017-11-15T08:28:01.897Z,53.27
2017-11-15T08:30:29.321Z,50.83
2017-11-15T08:32:56.754Z,51.90
2017-11-15T08:35:24.593Z,52.70
2017-11-15T08:37:52.026Z,66.17
2017-11-15T08:40:19.450Z,59.47
2017-11-15T08:42:46.894Z,57.57
2017-11-15T08:45:14.314Z,61.63
2017-11-15T08:47:41.732Z,57.07
2017-11-15T08:50:09.169Z,50.27
2017-11-15T08:52:36.597Z,62.47
2017-11-15T08:55:04.518Z,55.60
2017-11-15T08:57:31.941Z,51.63
2017-11-15T08:59:59.361Z,60.60
2017-11-15T09:02:26.802Z,54.83
2017-11-15T09:04:54.224Z,47.57
2017-11-15T09:07:21.653Z,52.80
2017-11-15T09:09:49.210Z,50.63
2017-11-15T09:12:16.626Z,48.17
2017-11-15T09:14:44.053Z,43.33
2017-11-15T09:17:11.514Z,42.70
2017-11-15T09:19:38.938Z,47.80
2017-11-15T09:22:06.363Z,45.00
2017-11-15T09:24:34.487Z,41.60
2017-11-15T09:27:01.915Z,42.23
2017-11-15T09:29:29.351Z,48.47
2017-11-15T09:31:57.213Z,46.60
2017-11-15T09:34:24.626Z,42.23
2017-11-15T09:36:52.057Z,44.53
2017-11-15T09:39:19.726Z,41.40
2017-11-15T09:41:47.157Z,36.70
2017-11-15T09:44:14.576Z,36.97
2017-11-15T09:46:42.009Z,36.93
2017-11-15T09:49:09.440Z,38.07
2017-11-15T09:51:36.872Z,37.70
2017-11-15T09:54:04.756Z,51.83
2017-11-15T09:56:32.169Z,133.33
2017-11-15T09:58:59.599Z,31.20
2017-11-15T10:01:27.026Z,38.37
2017-11-15T10:03:54.458Z,36.93
2017-11-15T10:06:22.009Z,29.67
2017-11-15T10:08:49.445Z,35.43
2017-11-15T10:11:17.266Z,31.57
2017-11-15T10:13:44.716Z,35.13
2017-11-15T10:16:12.137Z,31.00
2017-11-15T10:18:39.563Z,34.43
2017-11-15T10:21:07.024Z,34.40
2017-11-15T10:23:34.454Z,37.73
2017-11-15T10:26:01.877Z,37.73
2017-11-15T10:28:29.302Z,41.20
2017-11-15T10:30:57.123Z,35.00
2017-11-15T10:33:24.865Z,43.30
2017-11-15T10:35:52.288Z,48.97
2017-11-15T10:38:19.711Z,43.47
2017-11-15T10:40:47.161Z,45.83
2017-11-15T10:43:14.608Z,58.03
2017-11-15T10:45:42.036Z,51.50
2017-11-15T10:48:09.453Z,49.10
2017-11-15T10:50:37.297Z,53.10
2017-11-15T10:53:04.713Z,62.43
2017-11-15T10:55:32.146Z,60.33
2017-11-15T10:57:59.673Z,61.53
2017-11-15T11:00:32.747Z,59.47
2017-11-15T11:03:00.470Z,59.23
2017-11-15T11:05:27.905Z,69.57
2017-11-15T11:07:55.334Z,55.27
2017-11-15T11:10:23.164Z,64.93
2017-11-15T11:12:50.594Z,55.37
2017-11-15T11:15:18.026Z,59.63
2017-11-15T11:17:45.487Z,56.70
2017-11-15T11:20:12.911Z,67.50
2017-11-15T11:22:40.334Z,62.93
2017-11-15T11:25:07.765Z,62.90
2017-11-15T11:27:35.189Z,59.17
2017-11-15T11:30:02.616Z,62.40
2017-11-15T11:32:30.051Z,64.63
2017-11-15T11:34:58.317Z,56.87
2017-11-15T11:37:25.781Z,60.93
2017-11-15T11:39:53.225Z,65.73
2017-11-15T11:42:20.663Z,61.47
2017-11-15T11:44:48.091Z,67.00
2017-11-15T11:47:15.953Z,57.27
2017-11-15T11:49:43.362Z,65.43
2017-11-15T11:52:10.841Z,68.60
2017-11-15T11:54:38.298Z,56.80
2017-11-15T11:57:05.720Z,68.37
2017-11-15T11:59:33.145Z,65.90
2017-11-15T12:02:00.611Z,68.07
2017-11-15T12:04:28.032Z,60.50
2017-11-15T12:06:55.858Z,66.77
2017-11-15T12:09:23.313Z,68.57
2017-11-15T12:11:50.749Z,64.30
2017-11-15T12:14:18.181Z,56.10
2017-11-15T12:16:45.615Z,58.53
2017-11-15T12:19:13.441Z,54.90
2017-11-15T12:21:40.898Z,60.07
2017-11-15T12:24:08.331Z,59.33
2017-11-15T12:26:35.760Z,55.63
2017-11-15T12:29:03.209Z,62.67
2017-11-15T12:31:30.655Z,58.00
2017-11-15T12:33:58.472Z,72.00
2017-11-15T12:36:25.910Z,52.50
2017-11-15T12:38:53.346Z,51.90
2017-11-15T12:41:20.777Z,48.20
2017-11-15T12:43:48.616Z,45.20
2017-11-15T12:46:16.053Z,44.07
2017-11-15T12:48:43.813Z,50.10
2017-11-15T12:51:11.238Z,39.50
2017-11-15T12:53:38.666Z,38.07
2017-11-15T12:56:06.501Z,34.80
2017-11-15T12:58:33.936Z,33.70
2017-11-15T13:01:01.433Z,37.67
2017-11-15T13:03:29.282Z,26.50
2017-11-15T13:05:56.712Z,32.47
2017-11-15T13:08:24.149Z,29.43
2017-11-15T13:10:51.821Z,28.47
2017-11-15T13:13:19.258Z,21.93
2017-11-15T13:15:46.712Z,27.60
2017-11-15T13:18:14.169Z,23.50
2017-11-15T13:20:41.589Z,20.37
2017-11-15T13:23:09.414Z,21.73
2017-11-15T13:25:36.859Z,96.43
2017-11-15T13:28:04.282Z,26.83
2017-11-15T13:30:31.827Z,37.70
2017-11-15T13:32:59.646Z,19.70
2017-11-15T13:35:27.081Z,19.60
2017-11-15T13:37:54.793Z,16.87
2017-11-15T13:40:22.627Z,20.63
2017-11-15T13:42:50.055Z,18.30
2017-11-15T13:45:17.506Z,20.97
2017-11-15T13:47:44.938Z,18.33
2017-11-15T13:50:12.759Z,19.83
2017-11-15T13:52:40.229Z,20.67
2017-11-15T13:55:07.653Z,21.13
2017-11-15T13:57:35.084Z,20.57
2017-11-15T14:00:02.521Z,20.67
2017-11-15T14:02:30.346Z,20.57
2017-11-15T14:04:57.781Z,19.00
2017-11-15T14:07:25.227Z,19.90
2017-11-15T14:09:52.653Z,19.80
2017-11-15T14:12:20.449Z,22.57
2017-11-15T14:14:47.893Z,19.13
2017-11-15T14:17:15.314Z,20.60
2017-11-15T14:19:43.166Z,21.17
2017-11-15T14:22:10.597Z,26.53
2017-11-15T14:24:38.027Z,23.27
2017-11-15T14:27:05.497Z,18.50
2017-11-15T14:29:32.923Z,21.43
2017-11-15T14:32:00.349Z,20.00
2017-11-15T14:34:29.085Z,23.20
2017-11-15T14:36:56.518Z,19.53
2017-11-15T14:39:23.945Z,18.87
2017-11-15T14:41:51.779Z,20.63
2017-11-15T14:44:19.201Z,20.70
2017-11-15T14:46:46.757Z,16.23
2017-11-15T14:49:14.161Z,24.93
2017-11-15T14:51:41.602Z,23.87
2017-11-15T14:54:09.030Z,17.50
2017-11-15T14:56:36.459Z,23.10
2017-11-15T14:59:03.914Z,17.97
2017-11-15T15:01:31.343Z,18.93
2017-11-15T15:03:59.160Z,19.33
2017-11-15T15:06:27.232Z,18.37
2017-11-15T15:08:54.658Z,19.43
2017-11-15T15:11:22.085Z,17.67
2017-11-15T15:13:49.917Z,17.67
2017-11-15T15:16:17.361Z,16.70
2017-11-15T15:18:44.785Z,18.90
2017-11-15T15:21:12.321Z,18.80
2017-11-15T15:23:40.391Z,21.17
2017-11-15T15:26:07.804Z,19.37
2017-11-15T15:28:35.398Z,19.57
2017-11-15T15:31:03.225Z,21.83
2017-11-15T15:33:30.669Z,30.13
2017-11-15T15:35:58.097Z,19.93
2017-11-15T15:38:25.637Z,15.80
2017-11-15T15:40:53.063Z,20.17
2017-11-15T15:43:20.620Z,18.73
2017-11-15T15:45:48.137Z,22.30
2017-11-15T15:48:15.581Z,19.00
2017-11-15T15:50:43.195Z,20.47
2017-11-15T15:53:10.709Z,20.67
2017-11-15T15:55:38.166Z,23.53
2017-11-15T15:58:05.824Z,20.20
2017-11-15T16:00:33.253Z,123.47
2017-11-15T16:03:00.690Z,24.13
2017-11-15T16:05:28.519Z,22.43
2017-11-15T16:07:55.950Z,27.63
2017-11-15T16:10:23.489Z,28.90
2017-11-15T16:12:50.918Z,18.53
2017-11-15T16:15:18.759Z,18.43
2017-11-15T16:17:46.205Z,24.00
2017-11-15T16:20:13.635Z,19.13
2017-11-15T16:22:41.060Z,17.63
2017-11-15T16:25:09.111Z,22.30
2017-11-15T16:27:36.517Z,19.60
2017-11-15T19:35:47.550Z,92.43
2017-11-15T19:38:15.419Z,95.13
2017-11-15T19:40:43.259Z,67.23
2017-11-15T19:43:10.686Z,74.20
2017-11-15T19:45:38.455Z,58.53
2017-11-15T19:48:05.947Z,51.77
2017-11-15T19:50:33.793Z,57.77
2017-11-15T19:53:01.238Z,51.00
2017-11-15T19:55:28.682Z,58.20
2017-11-15T19:57:56.346Z,62.13
2017-11-15T20:00:23.807Z,52.20
2017-11-15T20:02:51.254Z,65.00
2017-11-15T20:05:19.023Z,50.63
2017-11-15T20:07:46.468Z,53.37
2017-11-15T20:10:13.916Z,48.10
2017-11-15T20:12:41.666Z,48.57
2017-11-15T20:15:09.127Z,53.53
2017-11-15T20:17:36.568Z,60.47
2017-11-15T20:20:04.006Z,60.43
2017-11-15T20:22:31.446Z,57.73
2017-11-15T20:24:59.326Z,56.30
2017-11-15T20:27:27.155Z,51.67
2017-11-15T20:29:54.609Z,53.13
2017-11-15T20:32:22.046Z,52.00
2017-11-15T20:34:49.482Z,55.80
2017-11-15T20:37:16.934Z,51.30
2017-11-15T20:39:44.389Z,51.60
2017-11-15T20:42:11.842Z,60.83
2017-11-15T20:44:39.294Z,57.10
2017-11-15T20:47:07.594Z,55.97
2017-11-15T20:49:35.039Z,59.33
2017-11-15T20:52:02.482Z,60.97
2017-11-15T20:54:29.940Z,55.67
2017-11-15T20:56:57.372Z,50.67
2017-11-15T20:59:24.841Z,63.93
2017-11-15T21:01:52.278Z,48.97
2017-11-15T21:04:19.733Z,62.53
2017-11-15T21:06:47.557Z,59.50
2017-11-15T21:09:15.266Z,48.43
2017-11-15T21:11:42.689Z,49.73
2017-11-15T21:14:10.558Z,50.50
2017-11-15T21:16:38.384Z,48.30
2017-11-15T21:19:05.822Z,50.67
2017-11-15T21:21:33.286Z,48.63
2017-11-15T21:24:00.710Z,52.33
2017-11-15T21:26:28.137Z,53.60
2017-11-15T21:28:56.331Z,55.57
2017-11-15T21:31:23.774Z,56.13
2017-11-15T21:33:51.220Z,65.13
2017-11-15T21:36:18.717Z,59.27
2017-11-15T21:38:46.141Z,50.87
2017-11-15T21:41:13.982Z,61.13
2017-11-15T21:43:41.427Z,57.30
2017-11-15T21:46:08.855Z,61.00
2017-11-15T21:48:36.553Z,58.23
2017-11-15T21:51:04.098Z,67.43
2017-11-15T21:53:31.510Z,53.43
2017-11-15T21:55:58.969Z,75.90
2017-11-15T21:58:26.739Z,65.47
2017-11-15T22:00:54.167Z,92.07
2017-11-15T22:03:21.594Z,69.00
2017-11-15T22:05:49.043Z,60.93
2017-11-15T22:08:16.456Z,77.63
2017-11-15T22:10:43.886Z,61.83
2017-11-15T22:13:11.309Z,67.90
2017-11-15T22:15:38.738Z,66.67
2017-11-15T22:18:06.177Z,74.13
2017-11-15T22:20:33.613Z,78.17
2017-11-15T22:23:01.050Z,76.13
2017-11-15T22:25:28.494Z,68.23
2017-11-15T22:27:56.313Z,74.27
2017-11-15T22:30:23.742Z,79.73
2017-11-15T22:32:52.337Z,77.47
2017-11-15T22:35:19.766Z,92.63
2017-11-15T22:37:47.192Z,94.30
2017-11-15T22:40:14.637Z,95.53
2017-11-15T22:42:42.069Z,92.37
2017-11-15T22:45:09.499Z,95.47
2017-11-15T22:47:37.273Z,98.23
2017-11-15T22:50:04.705Z,100.00
2017-11-15T22:52:32.136Z,83.97
2017-11-15T22:54:59.980Z,92.60
2017-11-15T22:57:27.430Z,90.43
2017-11-15T22:59:54.852Z,78.77
2017-11-15T23:02:22.305Z,79.60
2017-11-15T23:04:49.725Z,86.57
2017-11-15T23:07:17.541Z,77.00
2017-11-15T23:09:45.186Z,74.97
2017-11-15T23:12:12.606Z,73.37
2017-11-15T23:14:40.426Z,82.80
2017-11-15T23:17:07.877Z,69.70
2017-11-15T23:19:35.301Z,74.27
2017-11-15T23:22:02.724Z,77.40
2017-11-15T23:24:31.712Z,68.97
2017-11-15T23:26:59.117Z,70.73
2017-11-15T23:29:26.541Z,73.10
2017-11-15T23:31:53.977Z,66.40
2017-11-15T23:34:21.406Z,66.93
2017-11-15T23:36:48.829Z,62.90
2017-11-15T23:39:16.550Z,70.73
2017-11-15T23:41:44.385Z,69.57
2017-11-15T23:44:11.817Z,67.50
2017-11-15T23:46:39.577Z,74.37
2017-11-15T23:49:07.005Z,60.20
2017-11-15T23:51:34.440Z,58.17
2017-11-15T23:54:01.886Z,56.70
2017-11-15T23:56:29.307Z,55.90
2017-11-15T23:58:56.742Z,62.37
